createdAt,value
2022-09-23T00:00:00.338Z,882.5
2022-09-23T00:01:00.587Z,882.5
2022-09-23T00:02:00.467Z,882.5
2022-09-23T00:03:00.395Z,882.5
2022-09-23T00:04:00.315Z,882.5
2022-09-23T00:05:00.338Z,882.5
2022-09-23T00:06:00.296Z,882.5
2022-09-23T00:07:00.526Z,882.6
2022-09-23T00:08:00.368Z,882.6
2022-09-23T00:09:00.282Z,882.6
2022-09-23T00:10:00.290Z,882.6
2022-09-23T00:11:00.319Z,882.6
2022-09-23T00:12:00.340Z,882.6
2022-09-23T00:13:00.549Z,882.6
2022-09-23T00:14:00.485Z,882.6
2022-09-23T00:15:00.288Z,882.6
2022-09-23T00:16:00.307Z,882.5
2022-09-23T00:17:00.448Z,882.5
2022-09-23T00:18:00.296Z,882.4
2022-09-23T00:19:00.495Z,882.4
2022-09-23T00:20:00.329Z,882.4
2022-09-23T00:21:00.298Z,882.4
2022-09-23T00:22:00.308Z,882.4
2022-09-23T00:23:00.293Z,882.4
2022-09-23T00:24:00.311Z,882.4
2022-09-23T00:25:00.486Z,882.4
2022-09-23T00:26:00.340Z,882.4
2022-09-23T00:27:00.313Z,882.4
2022-09-23T00:28:00.307Z,882.4
2022-09-23T00:29:00.528Z,882.4
2022-09-23T00:30:00.361Z,882.4
2022-09-23T00:31:00.607Z,882.4
2022-09-23T00:32:00.302Z,882.4
2022-09-23T00:33:00.300Z,882.3
2022-09-23T00:34:00.317Z,882.3
2022-09-23T00:35:00.351Z,882.3
2022-09-23T00:36:00.317Z,882.2
2022-09-23T00:37:00.460Z,882.2
2022-09-23T00:38:00.330Z,882.3
2022-09-23T00:39:00.358Z,882.3
2022-09-23T00:40:00.298Z,882.3
2022-09-23T00:41:00.312Z,882.4
2022-09-23T00:42:00.332Z,882.4
2022-09-23T00:43:00.561Z,882.4
2022-09-23T00:44:00.544Z,882.4
2022-09-23T00:45:00.304Z,882.3
2022-09-23T00:46:00.366Z,882.3
2022-09-23T00:47:00.299Z,882.3
2022-09-23T00:48:00.298Z,882.4
2022-09-23T00:49:00.503Z,882.4
2022-09-23T00:50:00.306Z,882.4
2022-09-23T00:51:00.296Z,882.4
2022-09-23T00:52:00.289Z,882.4
2022-09-23T00:53:00.305Z,882.4
2022-09-23T00:54:00.295Z,882.4
2022-09-23T00:55:00.504Z,882.4
2022-09-23T00:56:00.313Z,882.4
2022-09-23T00:57:00.304Z,882.4
2022-09-23T00:58:00.310Z,882.3
2022-09-23T00:59:00.434Z,882.3
2022-09-23T01:00:00.307Z,882.3
2022-09-23T01:01:00.533Z,882.4
2022-09-23T01:02:00.396Z,882.3
2022-09-23T01:03:00.310Z,882.4
2022-09-23T01:04:00.318Z,882.3
2022-09-23T01:05:00.283Z,882.3
2022-09-23T01:06:00.303Z,882.3
2022-09-23T01:07:00.403Z,882.3
2022-09-23T01:08:00.295Z,882.3
2022-09-23T01:09:00.305Z,882.2
2022-09-23T01:10:00.298Z,882.2
2022-09-23T01:11:00.312Z,882.1
2022-09-23T01:12:00.288Z,882.2
2022-09-23T01:13:00.461Z,882.1
2022-09-23T01:14:00.539Z,882.2
2022-09-23T01:15:00.298Z,882.3
2022-09-23T01:16:00.289Z,882.4
2022-09-23T01:17:00.372Z,882.5
2022-09-23T01:18:00.309Z,882.6
2022-09-23T01:19:00.434Z,882.6
2022-09-23T01:20:00.301Z,882.6
2022-09-23T01:21:00.314Z,882.5
2022-09-23T01:22:00.290Z,882.4
2022-09-23T01:23:00.293Z,882.3
2022-09-23T01:24:00.301Z,882.2
2022-09-23T01:25:00.422Z,882.2
2022-09-23T01:26:00.296Z,882.2
2022-09-23T01:27:00.273Z,882.2
2022-09-23T01:28:00.305Z,882.0
2022-09-23T01:29:00.481Z,881.8
2022-09-23T01:30:00.285Z,881.7
2022-09-23T01:31:00.559Z,881.7
2022-09-23T01:32:00.282Z,881.6
2022-09-23T01:33:00.315Z,881.5
2022-09-23T01:34:00.282Z,881.4
2022-09-23T01:35:00.292Z,881.4
2022-09-23T01:36:00.283Z,881.4
2022-09-23T01:37:00.433Z,881.5
2022-09-23T01:38:00.311Z,881.5
2022-09-23T01:39:00.401Z,881.7
2022-09-23T01:40:00.289Z,881.7
2022-09-23T01:41:00.307Z,881.7
2022-09-23T01:42:00.295Z,881.7
2022-09-23T01:43:00.542Z,881.7
2022-09-23T01:44:00.343Z,881.7
2022-09-23T01:45:00.329Z,881.8
2022-09-23T01:46:00.310Z,881.8
2022-09-23T01:47:00.311Z,881.9
2022-09-23T01:48:00.374Z,882.0
2022-09-23T01:49:00.558Z,881.9
2022-09-23T01:50:00.309Z,881.9
2022-09-23T01:51:00.339Z,881.9
2022-09-23T01:52:00.393Z,881.8
2022-09-23T01:53:00.303Z,881.9
2022-09-23T01:54:00.301Z,881.9
2022-09-23T01:55:00.468Z,881.9
2022-09-23T01:56:00.317Z,881.9
2022-09-23T01:57:00.350Z,881.9
2022-09-23T01:58:00.373Z,881.9
2022-09-23T01:59:00.521Z,881.9
2022-09-23T02:00:00.380Z,881.9
2022-09-23T02:01:00.502Z,881.9
2022-09-23T02:02:00.400Z,881.9
2022-09-23T02:03:00.316Z,881.9
2022-09-23T02:04:00.301Z,881.8
2022-09-23T02:05:00.299Z,881.8
2022-09-23T02:06:00.310Z,881.8
2022-09-23T02:07:00.439Z,881.8
2022-09-23T02:08:00.293Z,881.8
2022-09-23T02:09:00.323Z,881.9
2022-09-23T02:10:00.296Z,881.9
2022-09-23T02:11:00.327Z,881.9
2022-09-23T02:12:00.291Z,881.8
2022-09-23T02:13:00.464Z,881.8
2022-09-23T02:14:00.418Z,881.8
2022-09-23T02:15:00.312Z,881.7
2022-09-23T02:16:00.281Z,881.8
2022-09-23T02:17:00.347Z,881.8
2022-09-23T02:18:00.302Z,881.8
2022-09-23T02:19:00.493Z,881.8
2022-09-23T02:20:00.294Z,881.8
2022-09-23T02:21:00.302Z,881.8
2022-09-23T02:22:00.282Z,881.8
2022-09-23T02:23:00.280Z,881.9
2022-09-23T02:24:00.343Z,881.9
2022-09-23T02:25:00.523Z,881.9
2022-09-23T02:26:00.361Z,882.0
2022-09-23T02:27:00.371Z,882.0
2022-09-23T02:28:00.322Z,882.0
2022-09-23T02:29:00.441Z,882.0
2022-09-23T02:30:00.299Z,882.0
2022-09-23T02:31:00.574Z,882.0
2022-09-23T02:32:00.357Z,882.0
2022-09-23T02:33:00.313Z,882.0
2022-09-23T02:34:00.285Z,882.0
2022-09-23T02:35:00.299Z,882.0
2022-09-23T02:36:00.315Z,882.0
2022-09-23T02:37:00.483Z,882.0
2022-09-23T02:38:00.311Z,882.0
2022-09-23T02:39:00.304Z,882.0
2022-09-23T02:40:00.323Z,882.0
2022-09-23T02:41:00.360Z,882.0
2022-09-23T02:42:00.304Z,882.0
2022-09-23T02:43:00.452Z,882.0
2022-09-23T02:44:00.344Z,882.1
2022-09-23T02:45:00.524Z,882.1
2022-09-23T02:46:00.344Z,882.1
2022-09-23T02:47:00.326Z,882.1
2022-09-23T02:48:00.312Z,882.1
2022-09-23T02:49:00.462Z,882.1
2022-09-23T02:50:00.343Z,882.1
2022-09-23T02:51:00.274Z,882.1
2022-09-23T02:52:00.378Z,882.1
2022-09-23T02:53:00.300Z,882.1
2022-09-23T02:54:00.296Z,882.2
2022-09-23T02:55:00.455Z,882.2
2022-09-23T02:56:00.292Z,882.2
2022-09-23T02:57:00.281Z,882.2
2022-09-23T02:58:00.284Z,882.2
2022-09-23T02:59:00.312Z,882.2
2022-09-23T03:00:00.322Z,882.2
2022-09-23T03:01:00.435Z,882.2
2022-09-23T03:02:00.362Z,882.2
2022-09-23T03:03:00.298Z,882.2
2022-09-23T03:04:00.297Z,882.1
2022-09-23T03:05:00.312Z,882.1
2022-09-23T03:06:00.310Z,882.2
2022-09-23T03:07:00.534Z,882.2
2022-09-23T03:08:00.298Z,882.2
2022-09-23T03:09:00.379Z,882.2
2022-09-23T03:10:00.368Z,882.2
2022-09-23T03:11:00.348Z,882.2
2022-09-23T03:12:00.322Z,882.2
2022-09-23T03:13:00.555Z,882.2
2022-09-23T03:14:00.292Z,882.2
2022-09-23T03:15:00.344Z,882.2
2022-09-23T03:16:00.524Z,882.2
2022-09-23T03:17:00.309Z,882.2
2022-09-23T03:18:00.310Z,882.2
2022-09-23T03:19:00.455Z,882.2
2022-09-23T03:20:00.305Z,882.2
2022-09-23T03:21:00.338Z,882.3
2022-09-23T03:22:00.303Z,882.2
2022-09-23T03:23:00.298Z,882.2
2022-09-23T03:24:00.295Z,882.3
2022-09-23T03:25:00.439Z,882.3
2022-09-23T03:26:00.316Z,882.3
2022-09-23T03:27:00.295Z,882.3
2022-09-23T03:28:00.291Z,882.3
2022-09-23T03:29:00.319Z,882.2
2022-09-23T03:30:00.326Z,882.3
2022-09-23T03:31:00.518Z,882.3
2022-09-23T03:32:00.380Z,882.3
2022-09-23T03:33:00.289Z,882.3
2022-09-23T03:34:00.296Z,882.3
2022-09-23T03:35:00.312Z,882.2
2022-09-23T03:36:00.299Z,882.2
2022-09-23T03:37:00.494Z,882.2
2022-09-23T03:38:00.309Z,882.2
2022-09-23T03:39:00.299Z,882.3
2022-09-23T03:40:00.295Z,882.3
2022-09-23T03:41:00.308Z,882.3
2022-09-23T03:42:00.305Z,882.3
2022-09-23T03:43:00.413Z,882.3
2022-09-23T03:44:00.282Z,882.3
2022-09-23T03:45:00.312Z,882.2
2022-09-23T03:46:00.606Z,882.3
2022-09-23T03:47:00.291Z,882.3
2022-09-23T03:48:00.298Z,882.3
2022-09-23T03:49:00.592Z,882.3
2022-09-23T03:50:00.303Z,882.3
2022-09-23T03:51:00.337Z,882.3
2022-09-23T03:52:00.313Z,882.3
2022-09-23T03:53:00.395Z,882.3
2022-09-23T03:54:00.286Z,882.3
2022-09-23T03:55:00.539Z,882.4
2022-09-23T03:56:00.282Z,882.4
2022-09-23T03:57:00.309Z,882.4
2022-09-23T03:58:00.315Z,882.4
2022-09-23T03:59:00.332Z,882.4
2022-09-23T04:00:00.301Z,882.4
2022-09-23T04:01:00.687Z,882.4
2022-09-23T04:02:00.437Z,882.4
2022-09-23T04:03:00.367Z,882.3
2022-09-23T04:04:00.285Z,882.3
2022-09-23T04:05:00.355Z,882.3
2022-09-23T04:06:00.332Z,882.3
2022-09-23T04:07:00.621Z,882.3
2022-09-23T04:08:00.320Z,882.3
2022-09-23T04:09:00.295Z,882.3
2022-09-23T04:10:00.357Z,882.3
2022-09-23T04:11:00.289Z,882.3
2022-09-23T04:12:00.291Z,882.4
2022-09-23T04:13:00.591Z,882.3
2022-09-23T04:14:00.279Z,882.3
2022-09-23T04:15:00.300Z,882.4
2022-09-23T04:16:00.555Z,882.4
2022-09-23T04:17:00.412Z,882.4
2022-09-23T04:18:00.303Z,882.4
2022-09-23T04:19:00.416Z,882.4
2022-09-23T04:20:00.314Z,882.5
2022-09-23T04:21:00.341Z,882.5
2022-09-23T04:22:00.325Z,882.5
2022-09-23T04:23:00.316Z,882.4
2022-09-23T04:24:00.371Z,882.5
2022-09-23T04:25:00.448Z,882.4
2022-09-23T04:26:00.355Z,882.5
2022-09-23T04:27:00.327Z,882.4
2022-09-23T04:28:00.321Z,882.4
2022-09-23T04:29:00.329Z,882.4
2022-09-23T04:30:00.372Z,882.3
2022-09-23T04:31:00.462Z,882.4
2022-09-23T04:32:00.550Z,882.3
2022-09-23T04:33:00.300Z,882.3
2022-09-23T04:34:00.296Z,882.3
2022-09-23T04:35:00.299Z,882.3
2022-09-23T04:36:00.303Z,882.3
2022-09-23T04:37:00.364Z,882.3
2022-09-23T04:38:00.304Z,882.4
2022-09-23T04:39:00.340Z,882.3
2022-09-23T04:40:00.286Z,882.4
2022-09-23T04:41:00.318Z,882.4
2022-09-23T04:42:00.321Z,882.4
2022-09-23T04:43:00.482Z,882.4
2022-09-23T04:44:00.289Z,882.4
2022-09-23T04:45:00.302Z,882.5
2022-09-23T04:46:00.316Z,882.5
2022-09-23T04:47:00.429Z,882.4
2022-09-23T04:48:00.305Z,882.4
2022-09-23T04:49:00.496Z,882.4
2022-09-23T04:50:00.370Z,882.4
2022-09-23T04:51:00.375Z,882.4
2022-09-23T04:52:00.297Z,882.4
2022-09-23T04:53:00.304Z,882.4
2022-09-23T04:54:00.318Z,882.5
2022-09-23T04:55:00.460Z,882.4
2022-09-23T04:56:00.312Z,882.5
2022-09-23T04:57:00.315Z,882.5
2022-09-23T04:58:00.296Z,882.5
2022-09-23T04:59:00.347Z,882.5
2022-09-23T05:00:00.332Z,882.5
2022-09-23T05:01:05.124Z,882.5
2022-09-23T05:02:00.524Z,882.5
2022-09-23T05:03:00.298Z,882.5
2022-09-23T05:04:00.299Z,882.5
2022-09-23T05:05:00.299Z,882.5
2022-09-23T05:06:00.298Z,882.5
2022-09-23T05:07:03.225Z,882.5
2022-09-23T05:08:00.311Z,882.6
2022-09-23T05:09:00.393Z,882.6
2022-09-23T05:10:00.299Z,882.6
2022-09-23T05:11:00.307Z,882.6
2022-09-23T05:12:00.309Z,882.6
2022-09-23T05:13:00.441Z,882.7
2022-09-23T05:14:00.316Z,882.6
2022-09-23T05:15:00.310Z,882.6
2022-09-23T05:16:00.372Z,882.6
2022-09-23T05:17:00.462Z,882.6
2022-09-23T05:18:00.362Z,882.6
2022-09-23T05:19:00.524Z,882.6
2022-09-23T05:20:00.354Z,882.6
2022-09-23T05:21:00.332Z,882.6
2022-09-23T05:22:00.337Z,882.6
2022-09-23T05:23:00.336Z,882.6
2022-09-23T05:24:00.322Z,882.7
2022-09-23T05:25:00.482Z,882.7
2022-09-23T05:26:00.270Z,882.6
2022-09-23T05:27:00.294Z,882.7
2022-09-23T05:28:00.285Z,882.7
2022-09-23T05:29:00.518Z,882.8
2022-09-23T05:30:00.311Z,882.8
2022-09-23T05:31:00.538Z,882.7
2022-09-23T05:32:00.510Z,882.8
2022-09-23T05:33:00.309Z,882.8
2022-09-23T05:34:00.323Z,882.8
2022-09-23T05:35:00.338Z,882.8
2022-09-23T05:36:00.296Z,882.8
2022-09-23T05:37:00.402Z,882.8
2022-09-23T05:38:00.310Z,882.8
2022-09-23T05:39:00.491Z,882.8
2022-09-23T05:40:00.298Z,882.8
2022-09-23T05:41:00.337Z,882.8
2022-09-23T05:42:00.297Z,882.8
2022-09-23T05:43:00.426Z,882.8
2022-09-23T05:44:00.435Z,882.8
2022-09-23T05:45:00.453Z,882.8
2022-09-23T05:46:01.631Z,882.8
2022-09-23T05:47:00.628Z,882.8
2022-09-23T05:48:00.343Z,882.8
2022-09-23T05:49:03.081Z,882.8
2022-09-23T05:50:00.861Z,882.8
2022-09-23T05:51:00.365Z,882.8
2022-09-23T05:52:00.377Z,882.8
2022-09-23T05:53:00.304Z,882.8
2022-09-23T05:54:00.438Z,882.8
2022-09-23T05:55:00.487Z,882.8
2022-09-23T05:56:00.316Z,882.8
2022-09-23T05:57:02.770Z,882.8
2022-09-23T05:58:00.291Z,882.7
2022-09-23T05:59:00.427Z,882.8
2022-09-23T06:00:00.314Z,882.8
2022-09-23T06:01:00.463Z,882.8
2022-09-23T06:02:00.514Z,882.8
2022-09-23T06:03:00.491Z,882.8
2022-09-23T06:04:00.330Z,882.8
2022-09-23T06:05:00.296Z,882.8
2022-09-23T06:06:00.298Z,882.8
2022-09-23T06:07:03.467Z,882.8
2022-09-23T06:08:00.301Z,882.8
2022-09-23T06:09:00.432Z,882.8
2022-09-23T06:10:00.318Z,882.8
2022-09-23T06:11:00.282Z,882.8
2022-09-23T06:12:00.325Z,882.8
2022-09-23T06:13:00.484Z,882.8
2022-09-23T06:14:00.309Z,882.8
2022-09-23T06:15:00.290Z,882.8
2022-09-23T06:16:00.342Z,882.8
2022-09-23T06:17:00.292Z,882.7
2022-09-23T06:18:00.447Z,882.7
2022-09-23T06:19:04.533Z,882.8
2022-09-23T06:20:00.299Z,882.7
2022-09-23T06:21:00.296Z,882.7
2022-09-23T06:22:00.345Z,882.7
2022-09-23T06:23:00.338Z,882.8
2022-09-23T06:24:00.362Z,882.8
2022-09-23T06:25:00.425Z,882.7
2022-09-23T06:26:00.390Z,882.8
2022-09-23T06:27:00.356Z,882.8
2022-09-23T06:28:00.297Z,882.8
2022-09-23T06:29:00.307Z,882.8
2022-09-23T06:30:00.308Z,882.8
2022-09-23T06:31:00.479Z,882.8
2022-09-23T06:32:00.363Z,882.8
2022-09-23T06:33:00.553Z,882.8
2022-09-23T06:34:08.480Z,882.7
2022-09-23T06:35:00.312Z,882.7
2022-09-23T06:36:00.298Z,882.7
2022-09-23T06:37:08.330Z,882.8
2022-09-23T06:38:00.304Z,882.8
2022-09-23T06:39:00.317Z,882.7
2022-09-23T06:40:00.281Z,882.7
2022-09-23T06:41:00.359Z,882.7
2022-09-23T06:42:00.338Z,882.7
2022-09-23T06:43:00.445Z,882.8
2022-09-23T06:44:00.353Z,882.8
2022-09-23T06:45:00.466Z,882.8
2022-09-23T06:46:00.366Z,882.8
2022-09-23T06:47:00.549Z,882.9
2022-09-23T06:48:00.526Z,882.9
2022-09-23T06:49:00.526Z,882.9
2022-09-23T06:50:00.309Z,882.9
2022-09-23T06:51:00.283Z,882.9
2022-09-23T06:52:00.418Z,882.9
2022-09-23T06:53:00.273Z,882.9
2022-09-23T06:54:00.416Z,882.9
2022-09-23T06:55:00.468Z,882.9
2022-09-23T06:56:00.333Z,882.9
2022-09-23T06:57:00.301Z,882.9
2022-09-23T06:58:00.314Z,882.9
2022-09-23T06:59:00.306Z,882.9
2022-09-23T07:00:00.283Z,882.8
2022-09-23T07:01:00.507Z,882.8
2022-09-23T07:02:00.546Z,882.8
2022-09-23T07:03:00.418Z,882.8
2022-09-23T07:04:00.697Z,882.9
2022-09-23T07:05:00.321Z,882.9
2022-09-23T07:06:00.384Z,882.9
2022-09-23T07:07:00.493Z,882.8
2022-09-23T07:08:00.348Z,882.9
2022-09-23T07:09:00.335Z,882.9
2022-09-23T07:10:00.305Z,882.8
2022-09-23T07:11:00.280Z,882.8
2022-09-23T07:12:00.322Z,882.8
2022-09-23T07:13:00.444Z,882.8
2022-09-23T07:14:00.381Z,882.8
2022-09-23T07:15:00.317Z,882.8
2022-09-23T07:16:00.423Z,882.8
2022-09-23T07:17:00.346Z,882.8
2022-09-23T07:18:00.389Z,882.8
2022-09-23T07:19:00.520Z,882.8
2022-09-23T07:20:00.365Z,882.8
2022-09-23T07:21:00.316Z,882.8
2022-09-23T07:22:00.307Z,882.8
2022-09-23T07:23:00.306Z,882.8
2022-09-23T07:24:00.313Z,882.8
2022-09-23T07:25:00.525Z,882.8
2022-09-23T07:26:00.321Z,882.8
2022-09-23T07:27:00.308Z,882.8
2022-09-23T07:28:00.279Z,882.8
2022-09-23T07:29:00.294Z,882.8
2022-09-23T07:30:00.303Z,882.7
2022-09-23T07:31:01.038Z,882.8
2022-09-23T07:32:10.056Z,882.7
2022-09-23T07:33:00.400Z,882.7
2022-09-23T07:34:00.457Z,882.7
2022-09-23T07:35:00.611Z,882.7
2022-09-23T07:36:00.296Z,882.7
2022-09-23T07:37:00.368Z,882.7
2022-09-23T07:38:00.285Z,882.7
2022-09-23T07:39:00.300Z,882.7
2022-09-23T07:40:00.302Z,882.7
2022-09-23T07:41:00.305Z,882.7
2022-09-23T07:42:00.313Z,882.7
2022-09-23T07:43:00.447Z,882.7
2022-09-23T07:44:00.306Z,882.6
2022-09-23T07:45:00.314Z,882.6
2022-09-23T07:46:00.389Z,882.6
2022-09-23T07:47:00.392Z,882.6
2022-09-23T07:48:00.329Z,882.6
2022-09-23T07:49:00.533Z,882.6
2022-09-23T07:50:00.382Z,882.6
2022-09-23T07:51:00.349Z,882.6
2022-09-23T07:52:00.350Z,882.5
2022-09-23T07:53:00.311Z,882.5
2022-09-23T07:54:00.324Z,882.5
2022-09-23T07:55:00.467Z,882.5
2022-09-23T07:56:00.381Z,882.5
2022-09-23T07:57:00.314Z,882.5
2022-09-23T07:58:00.305Z,882.5
2022-09-23T07:59:00.788Z,882.5
2022-09-23T08:00:00.285Z,882.5
2022-09-23T08:01:00.565Z,882.5
2022-09-23T08:02:00.369Z,882.5
2022-09-23T08:03:00.385Z,882.4
2022-09-23T08:04:00.325Z,882.5
2022-09-23T08:05:00.482Z,882.4
2022-09-23T08:06:00.313Z,882.5
2022-09-23T08:07:00.445Z,882.5
2022-09-23T08:08:00.275Z,882.4
2022-09-23T08:09:00.412Z,882.4
2022-09-23T08:10:00.312Z,882.4
2022-09-23T08:11:00.285Z,882.4
2022-09-23T08:12:00.309Z,882.4
2022-09-23T08:13:00.437Z,882.4
2022-09-23T08:14:00.299Z,882.4
2022-09-23T08:15:00.294Z,882.4
2022-09-23T08:16:00.407Z,882.4
2022-09-23T08:17:00.283Z,882.3
2022-09-23T08:18:00.290Z,882.4
2022-09-23T08:19:00.620Z,882.4
2022-09-23T08:20:00.332Z,882.4
2022-09-23T08:21:00.293Z,882.4
2022-09-23T08:22:00.294Z,882.4
2022-09-23T08:23:00.310Z,882.4
2022-09-23T08:24:00.401Z,882.4
2022-09-23T08:25:00.445Z,882.4
2022-09-23T08:26:00.298Z,882.4
2022-09-23T08:27:00.334Z,882.4
2022-09-23T08:28:00.285Z,882.4
2022-09-23T08:29:00.316Z,882.3
2022-09-23T08:30:00.319Z,882.3
2022-09-23T08:31:00.506Z,882.3
2022-09-23T08:32:00.319Z,882.3
2022-09-23T08:33:00.315Z,882.3
2022-09-23T08:34:00.398Z,882.3
2022-09-23T08:35:00.397Z,882.3
2022-09-23T08:36:00.374Z,882.4
2022-09-23T08:37:00.370Z,882.4
2022-09-23T08:38:00.311Z,882.4
2022-09-23T08:39:00.304Z,882.4
2022-09-23T08:40:00.314Z,882.4
2022-09-23T08:41:00.318Z,882.4
2022-09-23T08:42:00.302Z,882.4
2022-09-23T08:43:00.580Z,882.3
2022-09-23T08:44:00.308Z,882.3
2022-09-23T08:45:00.277Z,882.3
2022-09-23T08:46:00.309Z,882.2
2022-09-23T08:48:00.316Z,882.2
2022-09-23T08:49:00.606Z,882.2
2022-09-23T08:50:00.343Z,882.2
2022-09-23T08:51:00.555Z,882.2
2022-09-23T08:52:00.569Z,882.2
2022-09-23T08:53:00.319Z,882.2
2022-09-23T08:54:00.319Z,882.2
2022-09-23T08:55:00.470Z,882.2
2022-09-23T08:56:00.418Z,882.2
2022-09-23T08:57:00.367Z,882.2
2022-09-23T08:58:23.982Z,882.2
2022-09-23T08:59:00.286Z,882.2
2022-09-23T09:00:00.365Z,882.2
2022-09-23T09:01:00.553Z,882.1
2022-09-23T09:02:00.308Z,882.1
2022-09-23T09:03:00.296Z,882.1
2022-09-23T09:04:00.418Z,882.1
2022-09-23T09:05:00.310Z,882.1
2022-09-23T09:06:00.309Z,882.1
2022-09-23T09:07:24.607Z,882.0
2022-09-23T09:08:00.523Z,882.0
2022-09-23T09:09:00.378Z,882.0
2022-09-23T09:10:00.288Z,882.0
2022-09-23T09:11:00.298Z,882.0
2022-09-23T09:12:00.304Z,882.0
2022-09-23T09:13:00.408Z,882.0
2022-09-23T09:14:00.420Z,882.0
2022-09-23T09:15:00.293Z,882.0
2022-09-23T09:16:00.323Z,882.0
2022-09-23T09:17:01.089Z,882.0
2022-09-23T09:18:00.294Z,882.0
2022-09-23T09:19:00.554Z,882.1
2022-09-23T09:20:00.309Z,882.1
2022-09-23T09:21:00.286Z,882.1
2022-09-23T09:22:00.314Z,882.1
2022-09-23T09:23:00.448Z,882.0
2022-09-23T09:24:00.538Z,882.0
2022-09-23T09:25:00.422Z,882.0
2022-09-23T09:26:00.300Z,882.0
2022-09-23T09:27:00.318Z,882.0
2022-09-23T09:28:00.326Z,882.1
2022-09-23T09:29:23.459Z,882.1
2022-09-23T09:30:00.301Z,882.1
2022-09-23T09:31:00.478Z,882.1
2022-09-23T09:32:00.296Z,882.1
2022-09-23T09:33:00.300Z,882.1
2022-09-23T09:34:00.325Z,882.1
2022-09-23T09:35:00.345Z,882.1
2022-09-23T09:36:00.309Z,882.1
2022-09-23T09:37:06.156Z,882.1
2022-09-23T09:38:00.446Z,882.2
2022-09-23T09:39:00.505Z,882.2
2022-09-23T09:40:00.277Z,882.2
2022-09-23T09:41:00.329Z,882.1
2022-09-23T09:42:00.375Z,882.1
2022-09-23T09:43:00.470Z,882.1
2022-09-23T09:44:00.433Z,882.1
2022-09-23T09:45:00.301Z,882.1
2022-09-23T09:46:00.353Z,882.2
2022-09-23T09:47:00.451Z,882.1
2022-09-23T09:48:00.399Z,882.1
2022-09-23T09:49:00.687Z,882.2
2022-09-23T09:50:00.389Z,882.1
2022-09-23T09:51:00.329Z,882.2
2022-09-23T09:52:00.335Z,882.1
2022-09-23T09:53:00.395Z,882.1
2022-09-23T09:54:00.278Z,882.1
2022-09-23T09:55:00.420Z,882.1
2022-09-23T09:56:04.615Z,882.1
2022-09-23T09:57:00.292Z,882.1
2022-09-23T09:58:00.276Z,882.1
2022-09-23T09:59:00.330Z,882.1
2022-09-23T10:00:00.346Z,882.1
2022-09-23T10:01:00.586Z,882.1
2022-09-23T10:02:00.310Z,882.1
2022-09-23T10:03:00.238Z,882.1
2022-09-23T10:04:00.253Z,882.2
2022-09-23T10:05:00.253Z,882.1
2022-09-23T10:06:00.220Z,882.1
2022-09-23T10:07:00.389Z,882.1
2022-09-23T10:08:00.503Z,882.1
2022-09-23T10:09:00.347Z,882.1
2022-09-23T10:10:06.130Z,882.1
2022-09-23T10:11:00.280Z,882.1
2022-09-23T10:12:00.236Z,882.1
2022-09-23T10:13:00.426Z,882.1
2022-09-23T10:14:00.355Z,882.1
2022-09-23T10:15:00.264Z,882.1
2022-09-23T10:16:00.294Z,882.1
2022-09-23T10:17:00.406Z,882.1
2022-09-23T10:18:00.276Z,882.1
2022-09-23T10:19:00.453Z,882.1
2022-09-23T10:20:00.372Z,882.1
2022-09-23T10:21:00.246Z,882.1
2022-09-23T10:22:00.317Z,882.1
2022-09-23T10:23:00.387Z,882.1
2022-09-23T10:24:00.247Z,882.1
2022-09-23T10:25:00.368Z,882.1
2022-09-23T10:26:00.250Z,882.1
2022-09-23T10:27:00.251Z,882.0
2022-09-23T10:28:02.653Z,882.1
2022-09-23T10:29:00.273Z,882.1
2022-09-23T10:30:00.242Z,882.1
2022-09-23T10:31:00.410Z,882.1
2022-09-23T10:32:00.230Z,882.1
2022-09-23T10:33:00.239Z,882.1
2022-09-23T10:34:00.262Z,882.1
2022-09-23T10:35:00.228Z,882.1
2022-09-23T10:36:00.254Z,882.2
2022-09-23T10:37:00.463Z,882.1
2022-09-23T10:38:00.470Z,882.1
2022-09-23T10:39:00.337Z,882.1
2022-09-23T10:40:00.259Z,882.1
2022-09-23T10:41:00.436Z,882.1
2022-09-23T10:42:00.249Z,882.1
2022-09-23T10:43:00.532Z,882.1
2022-09-23T10:44:00.276Z,882.1
2022-09-23T10:45:00.247Z,882.1
2022-09-23T10:46:00.271Z,882.1
2022-09-23T10:47:00.250Z,882.1
2022-09-23T10:48:00.274Z,882.0
2022-09-23T10:49:00.557Z,882.0
2022-09-23T10:50:00.237Z,882.0
2022-09-23T10:51:00.232Z,882.0
2022-09-23T10:52:00.259Z,882.0
2022-09-23T10:53:00.407Z,881.9
2022-09-23T10:54:00.331Z,881.9
2022-09-23T10:55:00.638Z,881.9
2022-09-23T10:56:00.268Z,881.9
2022-09-23T10:57:00.257Z,881.9
2022-09-23T10:58:00.260Z,881.9
2022-09-23T10:59:00.262Z,881.9
2022-09-23T11:00:00.256Z,881.9
2022-09-23T11:01:00.441Z,881.9
2022-09-23T11:02:00.261Z,881.9
2022-09-23T11:03:00.243Z,881.9
2022-09-23T11:04:00.323Z,881.9
2022-09-23T11:05:00.381Z,881.9
2022-09-23T11:06:00.331Z,881.9
2022-09-23T11:07:00.410Z,881.8
2022-09-23T11:08:00.370Z,881.9
2022-09-23T11:09:00.272Z,881.8
2022-09-23T11:10:00.262Z,881.8
2022-09-23T11:11:00.272Z,881.9
2022-09-23T11:12:00.361Z,881.8
2022-09-23T11:13:00.401Z,881.8
2022-09-23T11:14:00.264Z,881.8
2022-09-23T11:15:00.260Z,881.8
2022-09-23T11:16:00.253Z,881.9
2022-09-23T11:17:00.284Z,881.9
2022-09-23T11:18:00.261Z,881.8
2022-09-23T11:19:00.571Z,881.8
2022-09-23T11:20:00.275Z,881.8
2022-09-23T11:21:00.324Z,881.8
2022-09-23T11:22:00.264Z,881.8
2022-09-23T11:23:00.492Z,881.8
2022-09-23T11:24:00.463Z,881.8
2022-09-23T11:25:00.388Z,881.8
2022-09-23T11:26:00.258Z,881.8
2022-09-23T11:27:00.247Z,881.8
2022-09-23T11:28:00.272Z,881.8
2022-09-23T11:29:00.268Z,881.8
2022-09-23T11:30:00.271Z,881.8
2022-09-23T11:31:00.501Z,881.8
2022-09-23T11:32:00.274Z,881.8
2022-09-23T11:33:00.344Z,881.8
2022-09-23T11:34:00.297Z,881.8
2022-09-23T11:35:00.288Z,881.8
2022-09-23T11:36:00.266Z,881.8
2022-09-23T11:37:00.512Z,881.8
2022-09-23T11:38:00.265Z,881.8
2022-09-23T11:39:00.414Z,881.8
2022-09-23T11:40:00.329Z,881.8
2022-09-23T11:41:00.463Z,881.8
2022-09-23T11:42:00.291Z,881.8
2022-09-23T11:43:00.540Z,881.8
2022-09-23T11:44:00.283Z,881.8
2022-09-23T11:45:00.271Z,881.8
2022-09-23T11:46:00.296Z,881.8
2022-09-23T11:47:00.311Z,881.8
2022-09-23T11:48:00.272Z,881.8
2022-09-23T11:49:00.427Z,881.8
2022-09-23T11:50:00.257Z,881.8
2022-09-23T11:51:00.283Z,881.8
2022-09-23T11:52:00.392Z,881.8
2022-09-23T11:53:00.281Z,881.8
2022-09-23T11:54:00.476Z,881.8
2022-09-23T11:55:02.511Z,881.8
2022-09-23T11:56:00.306Z,881.8
2022-09-23T11:57:00.353Z,881.8
2022-09-23T11:58:00.309Z,881.8
2022-09-23T11:59:00.592Z,881.8
2022-09-23T12:00:00.415Z,881.8
2022-09-23T12:01:01.445Z,881.8
2022-09-23T12:02:06.959Z,881.8
2022-09-23T12:03:05.638Z,881.8
2022-09-23T12:04:08.592Z,881.8
2022-09-23T12:05:00.487Z,881.8
2022-09-23T12:06:00.473Z,881.8
2022-09-23T12:07:00.439Z,881.8
2022-09-23T12:08:00.314Z,881.8
2022-09-23T12:09:00.690Z,881.8
2022-09-23T12:10:00.315Z,881.8
2022-09-23T12:11:00.299Z,881.9
2022-09-23T12:12:00.424Z,881.8
2022-09-23T12:13:00.644Z,881.8
2022-09-23T12:14:00.707Z,881.8
2022-09-23T12:15:00.291Z,881.8
2022-09-23T12:16:00.295Z,881.8
2022-09-23T12:17:00.407Z,881.8
2022-09-23T12:18:00.325Z,881.8
2022-09-23T12:19:00.544Z,881.8
2022-09-23T12:20:00.380Z,881.7
2022-09-23T12:21:00.341Z,881.7
2022-09-23T12:22:00.255Z,881.7
2022-09-23T12:23:00.431Z,881.7
2022-09-23T12:24:00.692Z,881.7
2022-09-23T12:25:00.512Z,881.7
2022-09-23T12:26:00.395Z,881.7
2022-09-23T12:27:00.386Z,881.7
2022-09-23T12:28:00.355Z,881.7
2022-09-23T12:29:00.325Z,881.7
2022-09-23T12:30:00.381Z,881.7
2022-09-23T12:31:00.664Z,881.7
2022-09-23T12:32:00.384Z,881.7
2022-09-23T12:33:00.481Z,881.7
2022-09-23T12:34:00.392Z,881.7
2022-09-23T12:35:00.268Z,881.7
2022-09-23T12:36:00.398Z,881.7
2022-09-23T12:37:00.591Z,881.6
2022-09-23T12:38:00.492Z,881.6
2022-09-23T12:39:00.612Z,881.6
2022-09-23T12:40:00.385Z,881.6
2022-09-23T12:41:00.517Z,881.6
2022-09-23T12:42:00.448Z,881.6
2022-09-23T12:43:00.610Z,881.6
2022-09-23T12:44:00.501Z,881.6
2022-09-23T12:45:00.355Z,881.6
2022-09-23T12:46:00.450Z,881.6
2022-09-23T12:47:00.488Z,881.6
2022-09-23T12:48:00.504Z,881.6
2022-09-23T12:49:00.498Z,881.6
2022-09-23T12:50:00.501Z,881.6
2022-09-23T12:51:00.453Z,881.6
2022-09-23T12:52:00.297Z,881.6
2022-09-23T12:53:00.325Z,881.6